sensor_id;sensor_type;location;lat;lon;timestamp;pressure;altitude;pressure_sealevel;temperature;humidity
61506;BME280;47366;51.916;4.574;2022-11-18T00:01:34;99518.78;;;8.35;91.73
61506;BME280;47366;51.916;4.574;2022-11-18T00:04:00;99518.78;;;8.35;91.83
61506;BME280;47366;51.916;4.574;2022-11-18T00:06:27;99525.38;;;8.31;91.84
61506;BME280;47366;51.916;4.574;2022-11-18T00:08:54;99528.72;;;8.35;91.80
61506;BME280;47366;51.916;4.574;2022-11-18T00:11:24;99529.91;;;8.30;91.86
61506;BME280;47366;51.916;4.574;2022-11-18T00:14:13;99534.56;;;8.28;92.23
61506;BME280;47366;51.916;4.574;2022-11-18T00:16:57;99537.16;;;8.30;92.12
61506;BME280;47366;51.916;4.574;2022-11-18T00:19:25;99549.88;;;8.28;92.03
61506;BME280;47366;51.916;4.574;2022-11-18T00:21:51;99548.16;;;8.27;92.13
61506;BME280;47366;51.916;4.574;2022-11-18T00:24:17;99548.38;;;8.24;91.88
61506;BME280;47366;51.916;4.574;2022-11-18T00:26:43;99550.13;;;8.25;92.35
61506;BME280;47366;51.916;4.574;2022-11-18T00:29:09;99569.09;;;8.23;92.33
61506;BME280;47366;51.916;4.574;2022-11-18T00:31:35;99564.03;;;8.19;92.39
61506;BME280;47366;51.916;4.574;2022-11-18T00:34:01;99568.44;;;8.20;92.79
61506;BME280;47366;51.916;4.574;2022-11-18T00:36:27;99566.75;;;8.19;92.80
61506;BME280;47366;51.916;4.574;2022-11-18T00:38:53;99569.53;;;8.17;92.81
61506;BME280;47366;51.916;4.574;2022-11-18T00:41:19;99572.47;;;8.14;92.78
61506;BME280;47366;51.916;4.574;2022-11-18T00:43:44;99575.91;;;8.16;93.14
61506;BME280;47366;51.916;4.574;2022-11-18T00:46:10;99576.16;;;8.13;93.32
61506;BME280;47366;51.916;4.574;2022-11-18T00:48:36;99573.56;;;8.12;93.32
61506;BME280;47366;51.916;4.574;2022-11-18T00:51:12;99587.03;;;8.12;93.15
61506;BME280;47366;51.916;4.574;2022-11-18T00:53:38;99579.94;;;8.11;93.58
61506;BME280;47366;51.916;4.574;2022-11-18T00:56:03;99585.31;;;8.11;93.82
61506;BME280;47366;51.916;4.574;2022-11-18T00:58:29;99591.69;;;8.09;93.60
61506;BME280;47366;51.916;4.574;2022-11-18T01:00:54;99599.66;;;8.11;93.68
61506;BME280;47366;51.916;4.574;2022-11-18T01:03:20;99598.81;;;8.11;93.46
61506;BME280;47366;51.916;4.574;2022-11-18T01:05:46;99604.31;;;8.09;93.78
61506;BME280;47366;51.916;4.574;2022-11-18T01:08:12;99604.94;;;8.13;94.10
61506;BME280;47366;51.916;4.574;2022-11-18T01:10:39;99603.97;;;8.14;93.47
61506;BME280;47366;51.916;4.574;2022-11-18T01:13:05;99601.28;;;8.14;93.66
61506;BME280;47366;51.916;4.574;2022-11-18T01:15:54;99611.22;;;8.13;94.14
61506;BME280;47366;51.916;4.574;2022-11-18T01:18:26;99617.38;;;8.15;94.39
61506;BME280;47366;51.916;4.574;2022-11-18T01:20:52;99617.47;;;8.14;94.23
61506;BME280;47366;51.916;4.574;2022-11-18T01:23:19;99632.78;;;8.13;93.89
61506;BME280;47366;51.916;4.574;2022-11-18T01:25:47;99627.59;;;8.10;94.18
61506;BME280;47366;51.916;4.574;2022-11-18T01:28:13;99627.50;;;8.12;93.95
61506;BME280;47366;51.916;4.574;2022-11-18T01:30:40;99626.88;;;8.08;93.88
61506;BME280;47366;51.916;4.574;2022-11-18T01:33:06;99633.31;;;8.05;94.05
61506;BME280;47366;51.916;4.574;2022-11-18T01:35:40;99626.44;;;8.01;94.46
61506;BME280;47366;51.916;4.574;2022-11-18T01:38:06;99635.16;;;8.05;94.45
61506;BME280;47366;51.916;4.574;2022-11-18T01:40:34;99640.88;;;8.00;94.68
61506;BME280;47366;51.916;4.574;2022-11-18T01:43:00;99657.81;;;8.02;94.51
61506;BME280;47366;51.916;4.574;2022-11-18T01:45:34;99646.16;;;8.02;94.68
61506;BME280;47366;51.916;4.574;2022-11-18T01:48:12;99652.41;;;8.02;95.47
61506;BME280;47366;51.916;4.574;2022-11-18T01:50:43;99651.78;;;7.99;95.39
61506;BME280;47366;51.916;4.574;2022-11-18T01:53:13;99655.88;;;8.04;94.83
61506;BME280;47366;51.916;4.574;2022-11-18T01:55:43;99655.97;;;8.03;94.70
61506;BME280;47366;51.916;4.574;2022-11-18T01:58:21;99665.78;;;8.04;94.59
61506;BME280;47366;51.916;4.574;2022-11-18T02:00:48;99663.31;;;8.01;94.63
61506;BME280;47366;51.916;4.574;2022-11-18T02:03:15;99665.03;;;8.02;95.30
61506;BME280;47366;51.916;4.574;2022-11-18T02:05:43;99663.31;;;8.01;95.31
61506;BME280;47366;51.916;4.574;2022-11-18T02:08:10;99662.44;;;8.00;95.37
61506;BME280;47366;51.916;4.574;2022-11-18T02:10:36;99658.03;;;7.99;95.16
61506;BME280;47366;51.916;4.574;2022-11-18T02:13:02;99666.03;;;8.01;95.29
61506;BME280;47366;51.916;4.574;2022-11-18T02:15:59;99664.19;;;8.01;95.86
61506;BME280;47366;51.916;4.574;2022-11-18T02:18:34;99666.75;;;8.03;95.40
61506;BME280;47366;51.916;4.574;2022-11-18T02:21:17;99669.56;;;8.01;95.49
61506;BME280;47366;51.916;4.574;2022-11-18T02:24:15;99681.22;;;8.02;95.83
61506;BME280;47366;51.916;4.574;2022-11-18T02:29:24;99688.44;;;8.01;95.55
61506;BME280;47366;51.916;4.574;2022-11-18T02:32:00;99695.56;;;8.02;95.17
61506;BME280;47366;51.916;4.574;2022-11-18T02:34:49;99691.16;;;8.01;95.60
61506;BME280;47366;51.916;4.574;2022-11-18T02:37:30;99697.50;;;8.00;95.61
61506;BME280;47366;51.916;4.574;2022-11-18T02:40:08;99688.75;;;7.97;96.85
61506;BME280;47366;51.916;4.574;2022-11-18T02:42:36;99698.56;;;7.98;95.94
61506;BME280;47366;51.916;4.574;2022-11-18T02:45:14;99705.03;;;7.95;95.91
61506;BME280;47366;51.916;4.574;2022-11-18T02:47:43;99707.75;;;7.95;96.81
61506;BME280;47366;51.916;4.574;2022-11-18T02:50:13;99701.72;;;7.92;96.87
61506;BME280;47366;51.916;4.574;2022-11-18T02:52:40;99712.19;;;7.96;96.21
61506;BME280;47366;51.916;4.574;2022-11-18T02:55:10;99704.19;;;7.95;96.51
61506;BME280;47366;51.916;4.574;2022-11-18T02:57:37;99709.66;;;7.93;96.62
61506;BME280;47366;51.916;4.574;2022-11-18T03:00:04;99707.97;;;7.92;96.38
61506;BME280;47366;51.916;4.574;2022-11-18T03:02:41;99704.50;;;7.90;96.18
61506;BME280;47366;51.916;4.574;2022-11-18T03:05:09;99710.00;;;7.88;96.38
61506;BME280;47366;51.916;4.574;2022-11-18T03:07:38;99710.13;;;7.87;96.50
61506;BME280;47366;51.916;4.574;2022-11-18T03:10:07;99712.81;;;7.87;96.90
61506;BME280;47366;51.916;4.574;2022-11-18T03:15:47;99729.84;;;7.87;96.99
61506;BME280;47366;51.916;4.574;2022-11-18T03:18:21;99729.94;;;7.86;97.09
61506;BME280;47366;51.916;4.574;2022-11-18T03:21:03;99735.44;;;7.84;96.79
61506;BME280;47366;51.916;4.574;2022-11-18T03:26:12;99733.84;;;7.82;97.05
61506;BME280;47366;51.916;4.574;2022-11-18T03:28:58;99725.06;;;7.78;96.84
61506;BME280;47366;51.916;4.574;2022-11-18T03:31:45;99731.22;;;7.80;96.84
61506;BME280;47366;51.916;4.574;2022-11-18T03:34:36;99740.16;;;7.81;96.99
61506;BME280;47366;51.916;4.574;2022-11-18T03:37:01;99737.38;;;7.82;96.97
61506;BME280;47366;51.916;4.574;2022-11-18T03:39:31;99737.69;;;7.78;97.14
61506;BME280;47366;51.916;4.574;2022-11-18T03:42:10;99735.00;;;7.78;97.45
61506;BME280;47366;51.916;4.574;2022-11-18T03:44:38;99748.25;;;7.81;97.06
61506;BME280;47366;51.916;4.574;2022-11-18T03:47:13;99750.19;;;7.79;96.88
61506;BME280;47366;51.916;4.574;2022-11-18T03:49:49;99750.50;;;7.74;96.89
61506;BME280;47366;51.916;4.574;2022-11-18T03:52:22;99750.41;;;7.76;97.20
61506;BME280;47366;51.916;4.574;2022-11-18T03:54:52;99760.44;;;7.74;97.02
61506;BME280;47366;51.916;4.574;2022-11-18T03:57:30;99753.31;;;7.73;97.32
61506;BME280;47366;51.916;4.574;2022-11-18T04:02:28;99760.34;;;7.75;97.23
61506;BME280;47366;51.916;4.574;2022-11-18T04:04:56;99762.25;;;7.73;97.16
61506;BME280;47366;51.916;4.574;2022-11-18T04:07:30;99773.59;;;7.78;97.30
61506;BME280;47366;51.916;4.574;2022-11-18T04:10:19;99771.22;;;7.74;97.31
61506;BME280;47366;51.916;4.574;2022-11-18T04:12:47;99775.53;;;7.76;97.39
61506;BME280;47366;51.916;4.574;2022-11-18T04:15:15;99781.78;;;7.77;97.08
61506;BME280;47366;51.916;4.574;2022-11-18T04:17:41;99788.16;;;7.76;97.29
61506;BME280;47366;51.916;4.574;2022-11-18T04:20:16;99780.91;;;7.76;97.01
61506;BME280;47366;51.916;4.574;2022-11-18T04:22:42;99788.91;;;7.78;96.69
61506;BME280;47366;51.916;4.574;2022-11-18T04:25:08;99787.16;;;7.77;97.10
61506;BME280;47366;51.916;4.574;2022-11-18T04:27:33;99789.97;;;7.75;97.07
61506;BME280;47366;51.916;4.574;2022-11-18T04:29:58;99802.47;;;7.76;97.12
61506;BME280;47366;51.916;4.574;2022-11-18T04:32:23;99799.91;;;7.75;97.01
61506;BME280;47366;51.916;4.574;2022-11-18T04:34:49;99808.09;;;7.73;97.12
61506;BME280;47366;51.916;4.574;2022-11-18T04:37:14;99807.22;;;7.73;97.42
61506;BME280;47366;51.916;4.574;2022-11-18T04:39:39;99811.09;;;7.69;96.94
61506;BME280;47366;51.916;4.574;2022-11-18T04:42:05;99818.19;;;7.70;97.02
61506;BME280;47366;51.916;4.574;2022-11-18T04:44:31;99826.19;;;7.71;97.07
61506;BME280;47366;51.916;4.574;2022-11-18T04:47:00;99826.41;;;7.68;97.17
61506;BME280;47366;51.916;4.574;2022-11-18T04:49:26;99831.66;;;7.70;97.04
61506;BME280;47366;51.916;4.574;2022-11-18T04:51:53;99830.94;;;7.68;96.92
61506;BME280;47366;51.916;4.574;2022-11-18T04:54:19;99831.97;;;7.65;97.03
61506;BME280;47366;51.916;4.574;2022-11-18T04:56:46;99839.97;;;7.66;97.19
61506;BME280;47366;51.916;4.574;2022-11-18T04:59:13;99833.81;;;7.64;97.10
61506;BME280;47366;51.916;4.574;2022-11-18T05:01:38;99842.56;;;7.68;97.07
61506;BME280;47366;51.916;4.574;2022-11-18T05:04:05;99844.41;;;7.68;97.35
61506;BME280;47366;51.916;4.574;2022-11-18T05:06:31;99845.91;;;7.72;96.80
61506;BME280;47366;51.916;4.574;2022-11-18T05:08:58;99848.59;;;7.72;96.81
61506;BME280;47366;51.916;4.574;2022-11-18T05:11:25;99850.53;;;7.70;96.84
61506;BME280;47366;51.916;4.574;2022-11-18T05:14:10;99854.13;;;7.70;97.09
61506;BME280;47366;51.916;4.574;2022-11-18T05:16:35;99851.44;;;7.70;96.88
61506;BME280;47366;51.916;4.574;2022-11-18T05:19:02;99859.59;;;7.69;96.45
61506;BME280;47366;51.916;4.574;2022-11-18T05:21:27;99858.84;;;7.66;96.69
61506;BME280;47366;51.916;4.574;2022-11-18T05:23:52;99866.91;;;7.66;96.66
61506;BME280;47366;51.916;4.574;2022-11-18T05:26:18;99867.91;;;7.65;96.48
61506;BME280;47366;51.916;4.574;2022-11-18T05:28:43;99874.44;;;7.61;96.87
61506;BME280;47366;51.916;4.574;2022-11-18T05:31:11;99875.31;;;7.62;96.95
61506;BME280;47366;51.916;4.574;2022-11-18T05:33:37;99871.06;;;7.58;96.88
61506;BME280;47366;51.916;4.574;2022-11-18T05:36:04;99880.03;;;7.58;96.77
61506;BME280;47366;51.916;4.574;2022-11-18T05:38:31;99881.97;;;7.56;97.08
61506;BME280;47366;51.916;4.574;2022-11-18T05:40:56;99889.06;;;7.57;96.71
61506;BME280;47366;51.916;4.574;2022-11-18T05:43:22;99887.56;;;7.53;96.97
61506;BME280;47366;51.916;4.574;2022-11-18T05:45:49;99898.34;;;7.53;97.32
61506;BME280;47366;51.916;4.574;2022-11-18T05:48:15;99891.13;;;7.54;97.15
61506;BME280;47366;51.916;4.574;2022-11-18T05:50:40;99901.03;;;7.53;97.18
61506;BME280;47366;51.916;4.574;2022-11-18T05:53:06;99892.06;;;7.53;97.25
61506;BME280;47366;51.916;4.574;2022-11-18T05:55:54;99896.69;;;7.51;97.13
61506;BME280;47366;51.916;4.574;2022-11-18T05:58:21;99900.44;;;7.48;97.27
61506;BME280;47366;51.916;4.574;2022-11-18T06:00:47;99902.41;;;7.46;97.08
61506;BME280;47366;51.916;4.574;2022-11-18T06:03:19;99898.81;;;7.45;97.17
61506;BME280;47366;51.916;4.574;2022-11-18T06:05:46;99904.97;;;7.48;97.06
61506;BME280;47366;51.916;4.574;2022-11-18T06:08:13;99902.56;;;7.43;97.04
61506;BME280;47366;51.916;4.574;2022-11-18T06:10:42;99904.41;;;7.42;97.20
61506;BME280;47366;51.916;4.574;2022-11-18T06:13:10;99913.53;;;7.40;97.52
61506;BME280;47366;51.916;4.574;2022-11-18T06:15:40;99916.16;;;7.41;97.58
61506;BME280;47366;51.916;4.574;2022-11-18T06:18:22;99921.63;;;7.40;97.51
61506;BME280;47366;51.916;4.574;2022-11-18T06:20:50;99920.84;;;7.38;97.40
61506;BME280;47366;51.916;4.574;2022-11-18T06:23:17;99928.28;;;7.34;97.72
61506;BME280;47366;51.916;4.574;2022-11-18T06:25:42;99927.31;;;7.35;97.70
61506;BME280;47366;51.916;4.574;2022-11-18T06:28:09;99930.84;;;7.36;97.70
61506;BME280;47366;51.916;4.574;2022-11-18T06:30:36;99938.84;;;7.37;97.50
61506;BME280;47366;51.916;4.574;2022-11-18T06:33:02;99942.59;;;7.35;97.56
61506;BME280;47366;51.916;4.574;2022-11-18T06:35:27;99938.28;;;7.32;97.55
61506;BME280;47366;51.916;4.574;2022-11-18T06:37:52;99951.63;;;7.34;97.91
61506;BME280;47366;51.916;4.574;2022-11-18T06:40:17;99952.41;;;7.36;97.68
61506;BME280;47366;51.916;4.574;2022-11-18T06:42:43;99969.56;;;7.35;97.77
61506;BME280;47366;51.916;4.574;2022-11-18T06:45:26;99959.63;;;7.35;97.49
61506;BME280;47366;51.916;4.574;2022-11-18T06:47:58;99965.88;;;7.36;97.61
61506;BME280;47366;51.916;4.574;2022-11-18T06:50:25;99965.88;;;7.36;97.29
61506;BME280;47366;51.916;4.574;2022-11-18T06:52:50;99971.28;;;7.36;97.44
61506;BME280;47366;51.916;4.574;2022-11-18T06:55:16;99970.59;;;7.32;97.82
61506;BME280;47366;51.916;4.574;2022-11-18T06:57:41;99986.56;;;7.35;97.33
61506;BME280;47366;51.916;4.574;2022-11-18T07:00:07;99988.41;;;7.35;97.26
61506;BME280;47366;51.916;4.574;2022-11-18T07:02:35;100000.03;;;7.35;97.49
61506;BME280;47366;51.916;4.574;2022-11-18T07:05:00;99994.75;;;7.34;97.72
61506;BME280;47366;51.916;4.574;2022-11-18T07:07:25;99999.25;;;7.33;97.79
61506;BME280;47366;51.916;4.574;2022-11-18T07:09:51;100000.03;;;7.35;97.24
61506;BME280;47366;51.916;4.574;2022-11-18T07:12:16;100013.31;;;7.38;97.45
61506;BME280;47366;51.916;4.574;2022-11-18T07:14:41;100016.00;;;7.38;97.34
61506;BME280;47366;51.916;4.574;2022-11-18T07:17:07;100027.56;;;7.40;97.63
61506;BME280;47366;51.916;4.574;2022-11-18T07:19:32;100024.78;;;7.42;97.48
61506;BME280;47366;51.916;4.574;2022-11-18T07:21:57;100029.13;;;7.44;97.39
61506;BME280;47366;51.916;4.574;2022-11-18T07:24:24;100028.25;;;7.44;97.15
61506;BME280;47366;51.916;4.574;2022-11-18T07:26:49;100036.91;;;7.49;97.37
61506;BME280;47366;51.916;4.574;2022-11-18T07:29:16;100035.28;;;7.47;97.26
61506;BME280;47366;51.916;4.574;2022-11-18T07:31:41;100030.56;;;7.50;97.05
61506;BME280;47366;51.916;4.574;2022-11-18T07:34:07;100042.78;;;7.56;97.14
61506;BME280;47366;51.916;4.574;2022-11-18T07:36:32;100039.97;;;7.57;97.06
61506;BME280;47366;51.916;4.574;2022-11-18T07:38:58;100044.50;;;7.57;97.02
61506;BME280;47366;51.916;4.574;2022-11-18T07:41:26;100051.63;;;7.58;97.01
61506;BME280;47366;51.916;4.574;2022-11-18T07:43:57;100053.09;;;7.63;96.83
61506;BME280;47366;51.916;4.574;2022-11-18T07:46:30;100057.50;;;7.64;97.21
61506;BME280;47366;51.916;4.574;2022-11-18T07:48:58;100054.81;;;7.64;97.27
61506;BME280;47366;51.916;4.574;2022-11-18T07:51:30;100063.47;;;7.70;96.95
61506;BME280;47366;51.916;4.574;2022-11-18T07:53:56;100075.16;;;7.70;96.91
61506;BME280;47366;51.916;4.574;2022-11-18T07:56:22;100080.13;;;7.76;97.06
61506;BME280;47366;51.916;4.574;2022-11-18T07:58:54;100081.59;;;7.82;96.86
61506;BME280;47366;51.916;4.574;2022-11-18T08:01:23;100084.00;;;7.86;96.72
61506;BME280;47366;51.916;4.574;2022-11-18T08:03:49;100085.66;;;7.89;96.64
61506;BME280;47366;51.916;4.574;2022-11-18T08:06:16;100090.75;;;7.94;96.77
61506;BME280;47366;51.916;4.574;2022-11-18T08:08:43;100102.41;;;7.94;96.58
61506;BME280;47366;51.916;4.574;2022-11-18T08:11:11;100099.41;;;7.99;96.42
61506;BME280;47366;51.916;4.574;2022-11-18T08:13:37;100108.38;;;7.99;96.43
61506;BME280;47366;51.916;4.574;2022-11-18T08:16:04;100106.31;;;8.03;96.35
61506;BME280;47366;51.916;4.574;2022-11-18T08:18:31;100105.38;;;8.04;96.16
61506;BME280;47366;51.916;4.574;2022-11-18T08:21:03;100109.72;;;8.06;96.36
61506;BME280;47366;51.916;4.574;2022-11-18T08:23:29;100115.75;;;8.10;96.02
61506;BME280;47366;51.916;4.574;2022-11-18T08:26:08;100110.97;;;8.15;95.99
61506;BME280;47366;51.916;4.574;2022-11-18T08:28:33;100121.66;;;8.17;95.77
61506;BME280;47366;51.916;4.574;2022-11-18T08:30:59;100115.31;;;8.18;95.85
61506;BME280;47366;51.916;4.574;2022-11-18T08:33:24;100118.75;;;8.20;95.97
61506;BME280;47366;51.916;4.574;2022-11-18T08:35:50;100121.34;;;8.21;95.81
61506;BME280;47366;51.916;4.574;2022-11-18T08:38:16;100123.19;;;8.21;95.89
61506;BME280;47366;51.916;4.574;2022-11-18T08:40:44;100128.31;;;8.25;95.83
61506;BME280;47366;51.916;4.574;2022-11-18T08:43:11;100137.03;;;8.29;95.79
61506;BME280;47366;51.916;4.574;2022-11-18T08:45:39;100128.56;;;8.35;95.68
61506;BME280;47366;51.916;4.574;2022-11-18T08:48:05;100122.19;;;8.36;95.34
61506;BME280;47366;51.916;4.574;2022-11-18T08:50:30;100134.63;;;8.39;95.61
61506;BME280;47366;51.916;4.574;2022-11-18T08:52:55;100131.88;;;8.40;95.47
61506;BME280;47366;51.916;4.574;2022-11-18T08:55:21;100144.38;;;8.41;95.50
61506;BME280;47366;51.916;4.574;2022-11-18T08:57:46;100144.38;;;8.41;95.31
61506;BME280;47366;51.916;4.574;2022-11-18T09:00:13;100146.78;;;8.46;95.33
61506;BME280;47366;51.916;4.574;2022-11-18T09:02:38;100146.50;;;8.50;95.18
61506;BME280;47366;51.916;4.574;2022-11-18T09:05:04;100149.47;;;8.60;95.06
61506;BME280;47366;51.916;4.574;2022-11-18T09:07:30;100155.06;;;8.71;94.98
61506;BME280;47366;51.916;4.574;2022-11-18T09:09:55;100156.16;;;8.82;94.78
61506;BME280;47366;51.916;4.574;2022-11-18T09:12:24;100160.41;;;8.86;94.54
61506;BME280;47366;51.916;4.574;2022-11-18T09:14:51;100157.63;;;8.87;94.38
61506;BME280;47366;51.916;4.574;2022-11-18T09:17:16;100162.03;;;8.88;94.27
61506;BME280;47366;51.916;4.574;2022-11-18T09:19:42;100164.66;;;8.90;94.31
61506;BME280;47366;51.916;4.574;2022-11-18T09:22:07;100167.44;;;8.88;94.29
61506;BME280;47366;51.916;4.574;2022-11-18T09:24:34;100169.38;;;8.86;94.34
61506;BME280;47366;51.916;4.574;2022-11-18T09:27:04;100162.47;;;8.82;94.35
61506;BME280;47366;51.916;4.574;2022-11-18T09:29:30;100171.22;;;8.86;94.29
61506;BME280;47366;51.916;4.574;2022-11-18T09:31:57;100168.63;;;8.84;94.65
61506;BME280;47366;51.916;4.574;2022-11-18T09:34:27;100172.97;;;8.87;94.60
61506;BME280;47366;51.916;4.574;2022-11-18T09:36:52;100170.56;;;8.82;94.58
61506;BME280;47366;51.916;4.574;2022-11-18T09:39:20;100173.28;;;8.82;94.75
61506;BME280;47366;51.916;4.574;2022-11-18T09:47:35;100193.31;;;8.78;95.02
61506;BME280;47366;51.916;4.574;2022-11-18T09:50:11;100188.13;;;8.75;95.22
61506;BME280;47366;51.916;4.574;2022-11-18T09:55:28;100199.09;;;8.72;95.42
61506;BME280;47366;51.916;4.574;2022-11-18T09:57:56;100215.53;;;8.69;95.53
61506;BME280;47366;51.916;4.574;2022-11-18T10:00:24;100218.00;;;8.72;95.68
61506;BME280;47366;51.916;4.574;2022-11-18T10:03:00;100225.38;;;8.70;95.50
61506;BME280;47366;51.916;4.574;2022-11-18T10:05:29;100222.47;;;8.73;95.42
61506;BME280;47366;51.916;4.574;2022-11-18T10:10:55;100234.22;;;8.72;95.78
61506;BME280;47366;51.916;4.574;2022-11-18T10:16:42;100225.53;;;8.67;95.99
61506;BME280;47366;51.916;4.574;2022-11-18T10:19:31;100239.59;;;8.72;96.17
61506;BME280;47366;51.916;4.574;2022-11-18T10:24:53;100236.91;;;8.72;96.07
61506;BME280;47366;51.916;4.574;2022-11-18T10:27:20;100245.63;;;8.77;96.36
61506;BME280;47366;51.916;4.574;2022-11-18T10:29:58;100248.09;;;8.80;96.36
61506;BME280;47366;51.916;4.574;2022-11-18T10:32:25;100247.81;;;8.85;96.08
61506;BME280;47366;51.916;4.574;2022-11-18T10:34:52;100244.06;;;8.87;95.85
61506;BME280;47366;51.916;4.574;2022-11-18T10:39:50;100250.00;;;8.92;95.86
61506;BME280;47366;51.916;4.574;2022-11-18T10:42:24;100248.88;;;8.97;95.66
61506;BME280;47366;51.916;4.574;2022-11-18T10:44:51;100255.78;;;9.01;95.60
61506;BME280;47366;51.916;4.574;2022-11-18T10:49:52;100247.59;;;9.02;95.14
61506;BME280;47366;51.916;4.574;2022-11-18T10:52:19;100255.59;;;9.04;95.28
61506;BME280;47366;51.916;4.574;2022-11-18T10:54:44;100245.44;;;9.07;95.26
61506;BME280;47366;51.916;4.574;2022-11-18T11:02:28;100264.25;;;9.23;94.80
61506;BME280;47366;51.916;4.574;2022-11-18T11:04:56;100256.13;;;9.23;94.60
61506;BME280;47366;51.916;4.574;2022-11-18T11:07:32;100265.66;;;9.29;94.64
61506;BME280;47366;51.916;4.574;2022-11-18T11:12:35;100265.78;;;9.27;94.68
61506;BME280;47366;51.916;4.574;2022-11-18T11:17:35;100273.69;;;9.30;94.59
61506;BME280;47366;51.916;4.574;2022-11-18T11:20:09;100267.41;;;9.30;94.50
61506;BME280;47366;51.916;4.574;2022-11-18T11:22:39;100271.19;;;9.27;94.44
61506;BME280;47366;51.916;4.574;2022-11-18T11:25:17;100270.00;;;9.31;94.68
61506;BME280;47366;51.916;4.574;2022-11-18T11:27:48;100269.91;;;9.33;94.87
61506;BME280;47366;51.916;4.574;2022-11-18T11:30:20;100274.31;;;9.34;94.64
61506;BME280;47366;51.916;4.574;2022-11-18T11:33:08;100281.56;;;9.33;94.75
61506;BME280;47366;51.916;4.574;2022-11-18T11:41:23;100285.81;;;9.38;94.39
61506;BME280;47366;51.916;4.574;2022-11-18T11:49:52;100299.91;;;9.43;94.20
61506;BME280;47366;51.916;4.574;2022-11-18T11:55:41;100299.13;;;9.41;93.84
61506;BME280;47366;51.916;4.574;2022-11-18T12:03:44;100303.28;;;9.46;93.44
61506;BME280;47366;51.916;4.574;2022-11-18T12:06:10;100299.03;;;9.42;93.54
61506;BME280;47366;51.916;4.574;2022-11-18T12:08:38;100303.47;;;9.43;93.50
61506;BME280;47366;51.916;4.574;2022-11-18T12:11:28;100302.50;;;9.44;93.52
61506;BME280;47366;51.916;4.574;2022-11-18T12:14:39;100297.28;;;9.41;93.61
61506;BME280;47366;51.916;4.574;2022-11-18T12:17:11;100308.88;;;9.43;93.76
61506;BME280;47366;51.916;4.574;2022-11-18T12:19:41;100297.50;;;9.38;93.62
61506;BME280;47366;51.916;4.574;2022-11-18T12:22:06;100302.91;;;9.38;93.86
61506;BME280;47366;51.916;4.574;2022-11-18T12:24:33;100311.00;;;9.38;93.49
61506;BME280;47366;51.916;4.574;2022-11-18T12:27:12;100303.75;;;9.39;93.86
61506;BME280;47366;51.916;4.574;2022-11-18T12:29:43;100309.16;;;9.39;93.78
61506;BME280;47366;51.916;4.574;2022-11-18T12:32:38;100304.75;;;9.38;93.81
61506;BME280;47366;51.916;4.574;2022-11-18T12:40:39;100315.28;;;9.28;94.00
61506;BME280;47366;51.916;4.574;2022-11-18T12:48:55;100326.88;;;9.30;94.16
61506;BME280;47366;51.916;4.574;2022-11-18T12:53:51;100332.06;;;9.33;94.20
61506;BME280;47366;51.916;4.574;2022-11-18T12:59:01;100338.13;;;9.36;94.00
61506;BME280;47366;51.916;4.574;2022-11-18T13:01:31;100326.44;;;9.36;94.29
61506;BME280;47366;51.916;4.574;2022-11-18T13:04:07;100337.19;;;9.38;94.06
61506;BME280;47366;51.916;4.574;2022-11-18T13:06:35;100338.91;;;9.39;94.66
61506;BME280;47366;51.916;4.574;2022-11-18T13:09:04;100339.78;;;9.39;94.38
61506;BME280;47366;51.916;4.574;2022-11-18T13:11:55;100344.44;;;9.37;94.15
61506;BME280;47366;51.916;4.574;2022-11-18T13:14:28;100345.06;;;9.41;94.54
61506;BME280;47366;51.916;4.574;2022-11-18T13:17:37;100348.00;;;9.38;94.71
61506;BME280;47366;51.916;4.574;2022-11-18T13:20:36;100342.88;;;9.33;95.17
61506;BME280;47366;51.916;4.574;2022-11-18T13:25:48;100354.97;;;9.27;96.28
61506;BME280;47366;51.916;4.574;2022-11-18T13:28:20;100354.97;;;9.27;96.41
61506;BME280;47366;51.916;4.574;2022-11-18T13:30:58;100353.22;;;9.26;96.31
61506;BME280;47366;51.916;4.574;2022-11-18T13:33:26;100356.69;;;9.28;96.57
61506;BME280;47366;51.916;4.574;2022-11-18T13:35:52;100358.63;;;9.26;96.82
61506;BME280;47366;51.916;4.574;2022-11-18T13:38:22;100356.78;;;9.27;96.78
61506;BME280;47366;51.916;4.574;2022-11-18T13:40:49;100360.25;;;9.29;96.85
61506;BME280;47366;51.916;4.574;2022-11-18T13:43:35;100356.78;;;9.27;97.04
61506;BME280;47366;51.916;4.574;2022-11-18T13:46:06;100369.22;;;9.29;96.94
61506;BME280;47366;51.916;4.574;2022-11-18T13:48:34;100371.84;;;9.31;96.89
61506;BME280;47366;51.916;4.574;2022-11-18T13:51:01;100369.03;;;9.32;96.62
61506;BME280;47366;51.916;4.574;2022-11-18T13:53:34;100373.69;;;9.30;97.10
61506;BME280;47366;51.916;4.574;2022-11-18T13:56:05;100373.69;;;9.30;97.20
61506;BME280;47366;51.916;4.574;2022-11-18T14:01:04;100373.38;;;9.35;96.92
61506;BME280;47366;51.916;4.574;2022-11-18T14:03:33;100375.97;;;9.36;97.22
61506;BME280;47366;51.916;4.574;2022-11-18T14:06:00;100378.00;;;9.33;97.55
61506;BME280;47366;51.916;4.574;2022-11-18T14:08:32;100373.38;;;9.35;97.56
61506;BME280;47366;51.916;4.574;2022-11-18T14:10:58;100373.47;;;9.33;97.48
61506;BME280;47366;51.916;4.574;2022-11-18T14:13:30;100375.97;;;9.36;97.47
61506;BME280;47366;51.916;4.574;2022-11-18T14:15:58;100381.38;;;9.36;97.80
61506;BME280;47366;51.916;4.574;2022-11-18T14:18:32;100377.16;;;9.32;97.94
61506;BME280;47366;51.916;4.574;2022-11-18T14:20:59;100387.56;;;9.39;97.74
61506;BME280;47366;51.916;4.574;2022-11-18T14:25:54;100391.31;;;9.36;98.10
61506;BME280;47366;51.916;4.574;2022-11-18T14:28:24;100389.59;;;9.35;97.75
61506;BME280;47366;51.916;4.574;2022-11-18T14:33:29;100393.38;;;9.32;98.41
61506;BME280;47366;51.916;4.574;2022-11-18T14:36:00;100400.41;;;9.35;97.91
61506;BME280;47366;51.916;4.574;2022-11-18T14:38:41;100396.06;;;9.32;98.21
61506;BME280;47366;51.916;4.574;2022-11-18T14:41:09;100400.50;;;9.33;98.38
61506;BME280;47366;51.916;4.574;2022-11-18T14:43:35;100411.31;;;9.33;98.50
61506;BME280;47366;51.916;4.574;2022-11-18T14:46:03;100413.94;;;9.35;98.36
61506;BME280;47366;51.916;4.574;2022-11-18T14:48:30;100417.50;;;9.35;98.35
61506;BME280;47366;51.916;4.574;2022-11-18T14:50:58;100420.09;;;9.37;98.38